Main page
METAR-TAF:

METAR-TAF

Airports :

Joinville-Lauro Carneiro de Loyola Airport

Joinville, Santa Catarina, Brazil

latitude: 26-13-23S, longitude: 048-47-51W, elevation: 4 m

Current weather observation

The report was made 5 hours and 48 minutes ago, at 02:00 UTC
Calm wind
Temperature 19°C
Humidity 100%
Pressure 1013 hPa
Visibility 10 km or more
no clouds below 1500 m and no cumulonimbus

METAR: SBJV 200200Z 00000KT CAVOK 19/19 Q1013

Time: 04:48 (07:48 UTC)

Forecast

The report was made 4 hours and 48 minutes ago, at 03:00 UTC
Forecast valid from 20 at 06 UTC to 20 at 18 UTC
Wind 4 kt from the Northwest
Visibility 10 km or more
Few clouds at a height of 2000 ft
Becoming
from 20 at 12 UTC to 20 at 14 UTC
Wind 5 kt from the East/Northeast
Few clouds at a height of 3500 ft

TAF: SBJV 200300Z 2006/2018 31004KT 9999 FEW020 TN19/2008Z TX30/2018Z BECMG 2012/2014 06005KT FEW035 RMK PER

Weather observations and forecasts of more than 4000 airports (METAR and TAF reports).

The available stations are represented by yellow and red dots on the map.

Hover mouse over dot to see the name of the station.

Then click to see weather observations and forecasts.

To change the map : click on the green buttons with a black cross to zoom in, on the green button with a dash to zoom out, or on the green arrows for adjacent maps.


METAR-TAF: